createdAt,value
2022-10-01T00:01:10.275Z,25.98
2022-10-01T00:04:04.220Z,26.55
2022-10-01T00:06:51.216Z,27.05
2022-10-01T00:09:24.311Z,26.73
2022-10-01T00:12:11.234Z,26.02
2022-10-01T00:14:51.228Z,26.63
2022-10-01T00:17:38.242Z,27.48
2022-10-01T00:20:21.225Z,26.30
2022-10-01T00:23:08.238Z,26.92
2022-10-01T00:25:41.303Z,27.15
2022-10-01T00:28:28.291Z,26.60
2022-10-01T00:31:08.298Z,27.83
2022-10-01T00:34:02.254Z,26.63
2022-10-01T00:36:49.238Z,25.33
2022-10-01T00:39:22.356Z,25.73
2022-10-01T00:42:11.247Z,27.20
2022-10-01T00:44:51.254Z,26.17
2022-10-01T00:47:50.252Z,25.42
2022-10-01T00:50:41.268Z,24.65
2022-10-01T00:53:35.234Z,26.67
2022-10-01T00:56:29.269Z,26.33
2022-10-01T00:59:24.251Z,26.20
2022-10-01T01:02:18.298Z,25.77
2022-10-01T01:05:06.244Z,25.08
2022-10-01T01:07:45.401Z,26.27
2022-10-01T01:10:44.260Z,25.35
2022-10-01T01:13:37.267Z,26.00
2022-10-01T01:16:40.261Z,25.00
2022-10-01T01:19:34.269Z,23.35
2022-10-01T01:22:13.522Z,23.65
2022-10-01T01:25:27.269Z,23.75
2022-10-01T01:28:25.406Z,25.50
2022-10-01T01:31:31.478Z,24.92
2022-10-01T01:34:15.274Z,24.00
2022-10-01T01:37:12.274Z,23.52
2022-10-01T01:39:50.323Z,23.73
2022-10-01T01:42:44.275Z,24.23
2022-10-01T01:45:23.323Z,22.98
2022-10-01T01:48:11.290Z,23.13
2022-10-01T01:50:55.518Z,22.92
2022-10-01T01:53:42.297Z,22.42
2022-10-01T01:56:23.279Z,23.75
2022-10-01T01:59:17.291Z,22.63
2022-10-01T02:02:13.355Z,23.65
2022-10-01T02:05:08.285Z,22.65
2022-10-01T02:08:23.309Z,23.08
2022-10-01T02:11:32.470Z,24.33
2022-10-01T02:14:34.281Z,20.90
2022-10-01T02:17:20.368Z,21.60
2022-10-01T02:20:25.320Z,22.52
2022-10-01T02:23:12.289Z,23.38
2022-10-01T02:26:05.310Z,23.77
2022-10-01T02:28:41.361Z,23.73
2022-10-01T02:31:30.386Z,21.63
2022-10-01T02:34:16.265Z,22.33
2022-10-01T02:37:17.311Z,24.85
2022-10-01T02:40:06.322Z,23.85
2022-10-01T02:42:41.390Z,24.00
2022-10-01T02:45:31.295Z,23.55
2022-10-01T02:48:12.379Z,23.20
2022-10-01T02:51:48.276Z,24.85
2022-10-01T02:54:49.311Z,27.08
2022-10-01T02:57:43.288Z,27.33
2022-10-01T03:00:31.308Z,26.58
2022-10-01T03:03:04.370Z,26.10
2022-10-01T03:05:51.340Z,25.10
2022-10-01T03:08:24.381Z,23.88
2022-10-01T03:11:11.302Z,23.98
2022-10-01T03:13:44.377Z,24.85
2022-10-01T03:16:31.311Z,26.52
2022-10-01T03:19:04.387Z,25.00
2022-10-01T03:21:51.335Z,26.20
2022-10-01T03:24:24.390Z,25.02
2022-10-01T03:27:11.321Z,22.33
2022-10-01T03:29:51.306Z,23.67
2022-10-01T03:32:39.337Z,22.50
2022-10-01T03:35:20.311Z,21.33
2022-10-01T03:38:14.319Z,21.75
2022-10-01T03:41:01.317Z,20.10
2022-10-01T03:43:41.319Z,21.83
2022-10-01T03:46:35.342Z,20.55
2022-10-01T03:49:22.321Z,22.23
2022-10-01T03:51:56.627Z,21.48
2022-10-01T03:54:43.347Z,21.27
2022-10-01T03:57:16.434Z,22.48
2022-10-01T04:00:03.343Z,20.55
2022-10-01T04:02:36.498Z,20.52
2022-10-01T04:05:23.357Z,20.40
2022-10-01T04:07:56.420Z,20.90
2022-10-01T04:10:43.353Z,22.13
2022-10-01T04:13:16.400Z,20.88
2022-10-01T04:16:03.385Z,18.33
2022-10-01T04:18:43.345Z,20.08
2022-10-01T04:21:30.321Z,22.48
2022-10-01T04:24:11.359Z,20.35
2022-10-01T04:26:58.343Z,19.27
2022-10-01T04:29:40.382Z,20.38
2022-10-01T04:32:28.352Z,18.75
2022-10-01T04:35:09.338Z,17.73
2022-10-01T04:38:11.343Z,19.00
2022-10-01T04:40:44.400Z,18.40
2022-10-01T04:43:31.365Z,18.17
2022-10-01T04:46:11.362Z,18.70
2022-10-01T04:49:05.353Z,18.50
2022-10-01T04:51:59.371Z,17.13
2022-10-01T04:54:53.345Z,16.75
2022-10-01T04:57:41.351Z,19.00
2022-10-01T05:00:18.422Z,17.20
2022-10-01T05:03:05.370Z,16.02
2022-10-01T05:05:38.981Z,20.33
2022-10-01T05:08:25.362Z,18.88
2022-10-01T05:10:59.590Z,18.80
2022-10-01T05:13:46.417Z,19.90
2022-10-01T05:16:19.533Z,18.08
2022-10-01T05:19:06.379Z,19.25
2022-10-01T05:21:43.941Z,20.13
2022-10-01T05:24:30.404Z,20.15
2022-10-01T05:27:03.433Z,19.80
2022-10-01T05:29:50.401Z,19.75
2022-10-01T05:32:23.445Z,16.90
2022-10-01T05:35:11.411Z,17.60
2022-10-01T05:37:44.493Z,19.15
2022-10-01T05:40:34.356Z,19.33
2022-10-01T05:43:14.374Z,16.90
2022-10-01T05:46:08.409Z,18.38
2022-10-01T05:48:57.379Z,18.05
2022-10-01T05:51:30.494Z,18.10
2022-10-01T05:54:18.384Z,17.33
2022-10-01T05:57:01.402Z,20.88
2022-10-01T05:59:55.389Z,19.48
2022-10-01T06:02:42.494Z,19.02
2022-10-01T06:05:22.383Z,19.38
2022-10-01T06:08:19.396Z,18.52
2022-10-01T06:11:08.389Z,20.75
2022-10-01T06:13:51.404Z,20.13
2022-10-01T06:16:38.440Z,23.92
2022-10-01T06:19:11.520Z,28.17
2022-10-01T06:21:58.402Z,26.30
2022-10-01T06:24:31.820Z,24.42
2022-10-01T06:27:21.404Z,24.90
2022-10-01T06:29:54.523Z,25.48
2022-10-01T06:32:41.400Z,22.65
2022-10-01T06:35:15.660Z,24.63
2022-10-01T06:38:02.417Z,26.58
2022-10-01T06:40:37.011Z,21.95
2022-10-01T06:43:23.425Z,21.52
2022-10-01T06:45:56.528Z,23.70
2022-10-01T06:48:43.426Z,24.15
2022-10-01T06:51:16.513Z,20.95
2022-10-01T06:54:04.418Z,23.98
2022-10-01T06:56:37.575Z,23.38
2022-10-01T06:59:24.391Z,21.00
2022-10-01T07:02:04.447Z,19.92
2022-10-01T07:04:54.424Z,19.73
2022-10-01T07:07:30.001Z,19.58
2022-10-01T07:10:16.414Z,18.73
2022-10-01T07:12:56.494Z,19.88
2022-10-01T07:15:50.423Z,21.77
2022-10-01T07:18:37.416Z,21.88
2022-10-01T07:21:17.441Z,20.38
2022-10-01T07:24:11.428Z,21.08
2022-10-01T07:27:07.515Z,19.40
2022-10-01T07:29:54.414Z,17.02
2022-10-01T07:32:30.243Z,17.60
2022-10-01T07:35:16.499Z,18.77
2022-10-01T07:37:49.521Z,17.45
2022-10-01T07:40:36.500Z,16.55
2022-10-01T07:43:09.521Z,18.98
2022-10-01T07:45:57.617Z,19.13
2022-10-01T07:48:31.692Z,15.60
2022-10-01T07:51:18.434Z,15.90
2022-10-01T07:53:51.520Z,18.52
2022-10-01T07:56:41.435Z,17.00
2022-10-01T07:59:14.583Z,18.02
2022-10-01T08:02:01.484Z,17.27
2022-10-01T08:04:53.319Z,18.20
2022-10-01T08:07:42.432Z,17.02
2022-10-01T08:10:15.605Z,17.08
2022-10-01T08:13:14.661Z,18.63
2022-10-01T08:16:01.454Z,19.05
2022-10-01T08:18:48.497Z,18.27
2022-10-01T08:21:21.565Z,16.95
2022-10-01T08:24:09.530Z,17.40
2022-10-01T08:26:42.582Z,16.60
2022-10-01T08:29:29.438Z,17.08
2022-10-01T08:32:03.718Z,19.00
2022-10-01T08:34:56.639Z,16.92
2022-10-01T08:37:34.935Z,17.30
2022-10-01T08:40:22.494Z,19.60
2022-10-01T08:43:07.082Z,16.23
2022-10-01T08:45:59.546Z,16.17
2022-10-01T08:49:08.495Z,16.60
2022-10-01T08:52:05.522Z,16.45
2022-10-01T08:55:06.501Z,15.85
2022-10-01T08:58:13.534Z,17.35
2022-10-01T09:01:01.565Z,16.65
2022-10-01T09:03:44.495Z,16.48
2022-10-01T09:06:35.487Z,16.88
2022-10-01T09:09:33.608Z,17.65
2022-10-01T09:12:41.521Z,16.98
2022-10-01T09:15:37.460Z,18.77
2022-10-01T09:18:58.495Z,17.90
2022-10-01T09:22:08.497Z,16.35
2022-10-01T09:25:20.495Z,17.02
2022-10-01T09:27:53.678Z,15.13
2022-10-01T09:30:42.509Z,15.43
2022-10-01T09:33:24.515Z,17.50
2022-10-01T09:36:30.497Z,18.48
2022-10-01T09:39:25.523Z,18.50
2022-10-01T09:42:19.560Z,17.35
2022-10-01T09:45:16.494Z,17.88
2022-10-01T09:48:11.520Z,16.38
2022-10-01T09:50:56.091Z,18.63
2022-10-01T09:53:55.516Z,18.27
2022-10-01T09:56:58.507Z,19.67
2022-10-01T09:59:55.517Z,18.02
2022-10-01T10:02:41.482Z,15.45
2022-10-01T10:05:34.503Z,18.30
2022-10-01T10:08:26.509Z,14.07
2022-10-01T10:11:23.517Z,16.27
2022-10-01T10:14:11.517Z,18.33
2022-10-01T10:16:51.619Z,17.10
2022-10-01T10:19:39.517Z,16.50
2022-10-01T10:22:24.968Z,16.98
2022-10-01T10:25:24.519Z,16.52
2022-10-01T10:28:09.629Z,16.75
2022-10-01T10:31:04.469Z,17.00
2022-10-01T10:33:37.734Z,17.92
2022-10-01T10:36:32.678Z,17.98
2022-10-01T10:39:07.012Z,18.25
2022-10-01T10:41:56.594Z,19.20
2022-10-01T10:44:42.537Z,17.15
2022-10-01T10:47:38.583Z,16.75
2022-10-01T10:50:48.519Z,17.90
2022-10-01T10:53:55.537Z,16.25
2022-10-01T10:56:51.541Z,16.42
2022-10-01T10:59:40.524Z,18.40
2022-10-01T11:02:26.676Z,15.90
2022-10-01T11:05:31.523Z,17.00
2022-10-01T11:08:07.628Z,19.70
2022-10-01T11:11:09.535Z,17.23
2022-10-01T11:14:00.648Z,16.67
2022-10-01T11:16:57.553Z,17.92
2022-10-01T11:19:51.656Z,18.00
2022-10-01T11:23:02.543Z,16.08
2022-10-01T11:25:53.552Z,19.25
2022-10-01T11:29:07.580Z,19.55
2022-10-01T11:32:40.544Z,16.52
2022-10-01T11:36:01.575Z,17.98
2022-10-01T11:38:56.547Z,16.00
2022-10-01T11:41:43.701Z,15.57
2022-10-01T11:44:49.548Z,16.00
2022-10-01T11:47:47.954Z,15.98
2022-10-01T11:50:42.562Z,15.98
2022-10-01T11:53:31.586Z,17.58
2022-10-01T11:56:54.559Z,15.27
2022-10-01T11:59:56.586Z,16.35
2022-10-01T12:02:37.642Z,15.45
2022-10-01T12:05:34.671Z,15.70
2022-10-01T12:08:30.568Z,17.70
2022-10-01T12:11:25.565Z,16.38
2022-10-01T12:14:06.640Z,16.85
2022-10-01T12:17:05.565Z,17.17
2022-10-01T12:19:49.602Z,17.25
2022-10-01T12:22:46.556Z,17.58
2022-10-01T12:25:48.576Z,20.08
2022-10-01T12:29:00.522Z,17.38
2022-10-01T12:31:56.592Z,16.52
2022-10-01T12:35:08.567Z,18.75
2022-10-01T12:38:12.595Z,21.75
2022-10-01T12:41:10.646Z,18.55
2022-10-01T12:44:12.578Z,20.92
2022-10-01T12:46:59.588Z,21.73
2022-10-01T12:50:08.567Z,20.10
2022-10-01T12:53:36.614Z,21.23
2022-10-01T12:56:45.587Z,16.40
2022-10-01T12:59:51.604Z,18.13
2022-10-01T13:02:31.913Z,20.00
2022-10-01T13:05:42.631Z,17.25
2022-10-01T13:08:24.673Z,18.33
2022-10-01T13:11:45.621Z,19.50
2022-10-01T13:14:22.674Z,19.42
2022-10-01T13:17:38.634Z,18.58
2022-10-01T13:20:42.683Z,21.58
2022-10-01T13:23:54.644Z,19.08
2022-10-01T13:27:05.634Z,16.13
2022-10-01T13:30:27.625Z,19.60
2022-10-01T13:33:12.622Z,18.20
2022-10-01T13:36:09.606Z,19.05
2022-10-01T13:38:56.631Z,18.10
2022-10-01T13:41:35.145Z,15.82
2022-10-01T13:44:41.651Z,17.92
2022-10-01T13:47:15.296Z,18.30
2022-10-01T13:50:11.654Z,18.75
2022-10-01T13:52:44.716Z,18.08
2022-10-01T13:55:36.609Z,14.05
2022-10-01T13:58:25.825Z,17.83
2022-10-01T14:01:24.693Z,17.27
2022-10-01T14:04:10.716Z,15.32
2022-10-01T14:07:00.640Z,17.05
2022-10-01T14:09:54.645Z,17.52
2022-10-01T14:13:08.626Z,17.20
2022-10-01T14:16:05.692Z,14.57
2022-10-01T14:18:54.634Z,17.00
2022-10-01T14:21:57.624Z,16.98
2022-10-01T14:24:57.657Z,18.17
2022-10-01T14:28:08.703Z,16.95
2022-10-01T14:31:13.665Z,18.23
2022-10-01T14:34:18.625Z,17.30
2022-10-01T14:37:01.656Z,16.08
2022-10-01T14:39:55.663Z,27.20
2022-10-01T14:42:42.657Z,19.92
2022-10-01T14:45:32.653Z,17.17
2022-10-01T14:48:26.663Z,22.25
2022-10-01T14:51:29.645Z,20.85
2022-10-01T14:54:12.631Z,18.48
2022-10-01T14:57:07.651Z,18.95
2022-10-01T14:59:55.637Z,22.13
2022-10-01T15:02:30.770Z,27.83
2022-10-01T15:05:33.646Z,28.58
2022-10-01T15:08:18.789Z,26.70
2022-10-01T15:11:14.633Z,24.08
2022-10-01T15:13:51.191Z,27.67
2022-10-01T15:16:39.915Z,26.75
2022-10-01T15:19:21.825Z,24.13
2022-10-01T15:22:09.664Z,28.60
2022-10-01T15:24:54.173Z,23.95
2022-10-01T15:27:40.667Z,22.65
2022-10-01T15:30:20.854Z,24.52
2022-10-01T15:33:33.666Z,24.27
2022-10-01T15:36:09.744Z,22.83
2022-10-01T15:38:57.657Z,23.58
2022-10-01T15:41:45.705Z,25.67
2022-10-01T15:44:59.695Z,24.38
2022-10-01T15:47:56.686Z,29.13
2022-10-01T15:50:42.694Z,24.50
2022-10-01T15:53:36.683Z,23.95
2022-10-01T15:56:33.800Z,25.77
2022-10-01T15:59:26.690Z,26.05
2022-10-01T16:02:06.758Z,24.02
2022-10-01T16:04:54.718Z,22.42
2022-10-01T16:07:35.409Z,22.20
2022-10-01T16:10:41.690Z,20.38
2022-10-01T16:13:42.725Z,23.77
2022-10-01T16:16:35.938Z,29.67
2022-10-01T16:19:44.699Z,27.60
2022-10-01T16:22:38.692Z,32.72
2022-10-01T16:25:45.689Z,28.63
2022-10-01T16:28:43.697Z,28.67
2022-10-01T16:31:31.827Z,27.73
2022-10-01T16:34:04.784Z,26.70
2022-10-01T16:36:51.685Z,25.00
2022-10-01T16:39:25.092Z,23.95
2022-10-01T16:42:23.927Z,24.77
2022-10-01T16:45:04.699Z,24.05
2022-10-01T16:47:59.712Z,24.35
2022-10-01T16:50:47.712Z,26.15
2022-10-01T16:53:31.746Z,39.22
2022-10-01T16:56:21.391Z,38.30
2022-10-01T16:58:56.806Z,39.40
2022-10-01T17:01:43.753Z,39.28
2022-10-01T17:04:30.316Z,39.30
2022-10-01T17:07:26.734Z,37.55
2022-10-01T17:10:20.705Z,37.70
2022-10-01T17:13:08.729Z,35.95
2022-10-01T17:15:48.713Z,40.47
2022-10-01T17:18:42.726Z,41.28
2022-10-01T17:21:36.708Z,41.80
2022-10-01T17:24:23.755Z,37.83
2022-10-01T17:26:57.020Z,38.58
2022-10-01T17:29:43.718Z,39.58
2022-10-01T17:32:18.920Z,38.35
2022-10-01T17:35:05.749Z,37.53
2022-10-01T17:37:46.758Z,38.15
2022-10-01T17:40:40.756Z,35.70
2022-10-01T17:43:27.721Z,33.90
2022-10-01T17:46:05.864Z,33.50
2022-10-01T17:48:55.720Z,32.80
2022-10-01T17:51:35.744Z,36.65
2022-10-01T17:54:29.744Z,35.67
2022-10-01T17:57:17.758Z,35.03
2022-10-01T17:59:51.771Z,34.80
2022-10-01T18:02:42.106Z,35.40
2022-10-01T18:05:19.854Z,34.10
2022-10-01T18:08:06.742Z,33.60
2022-10-01T18:10:39.902Z,32.50
2022-10-01T18:13:26.756Z,31.13
2022-10-01T18:16:19.584Z,31.60
2022-10-01T18:22:22.736Z,32.55
2022-10-01T18:25:02.764Z,33.75
2022-10-01T18:27:49.778Z,32.88
2022-10-01T18:30:30.777Z,33.50
2022-10-01T18:33:18.770Z,31.65
2022-10-01T18:35:51.863Z,28.40
2022-10-01T18:38:40.767Z,26.80
2022-10-01T18:41:32.826Z,25.50
2022-10-01T18:44:23.788Z,25.23
2022-10-01T18:46:56.894Z,24.92
2022-10-01T18:50:09.777Z,22.90
2022-10-01T18:53:01.765Z,23.35
2022-10-01T18:56:14.777Z,21.40
2022-10-01T18:59:31.764Z,20.75
2022-10-01T19:02:36.856Z,19.55
2022-10-01T19:05:42.790Z,21.00
2022-10-01T19:09:04.792Z,21.10
2022-10-01T19:12:10.821Z,21.20
2022-10-01T19:15:09.780Z,20.58
2022-10-01T19:18:08.786Z,19.52
2022-10-01T19:21:30.771Z,20.45
2022-10-01T19:24:28.796Z,19.73
2022-10-01T19:27:19.952Z,21.77
2022-10-01T19:30:21.788Z,21.42
2022-10-01T19:33:15.861Z,19.15
2022-10-01T19:36:05.793Z,19.50
2022-10-01T19:38:46.488Z,19.92
2022-10-01T19:41:47.815Z,19.65
2022-10-01T19:44:32.792Z,20.40
2022-10-01T19:47:43.836Z,20.60
2022-10-01T19:50:25.863Z,19.10
2022-10-01T19:53:36.787Z,19.42
2022-10-01T19:56:40.806Z,20.25
2022-10-01T19:59:34.780Z,20.30
2022-10-01T20:02:37.810Z,20.73
2022-10-01T20:05:19.790Z,30.08
2022-10-01T20:08:39.828Z,26.52
2022-10-01T20:11:36.830Z,25.35
2022-10-01T20:14:52.803Z,22.25
2022-10-01T20:17:51.805Z,21.95
2022-10-01T20:20:46.815Z,21.73
2022-10-01T20:23:46.807Z,22.10
2022-10-01T20:26:42.791Z,19.05
2022-10-01T20:29:42.841Z,20.20
2022-10-01T20:32:37.813Z,21.17
2022-10-01T20:35:30.983Z,20.95
2022-10-01T20:38:27.813Z,19.92
2022-10-01T20:41:07.097Z,21.05
2022-10-01T20:43:57.818Z,19.83
2022-10-01T20:46:39.182Z,21.77
2022-10-01T20:49:38.821Z,20.08
2022-10-01T20:52:34.481Z,20.15
2022-10-01T20:55:32.831Z,21.45
2022-10-01T20:58:21.857Z,20.67
2022-10-01T21:01:23.907Z,20.70
2022-10-01T21:04:27.845Z,19.45
2022-10-01T21:07:06.917Z,19.38
2022-10-01T21:09:56.851Z,19.95
2022-10-01T21:12:36.913Z,20.17
2022-10-01T21:15:24.837Z,22.17
2022-10-01T21:18:20.951Z,21.55
2022-10-01T21:21:24.848Z,21.60
2022-10-01T21:24:22.888Z,21.88
2022-10-01T21:27:18.861Z,19.05
2022-10-01T21:30:04.834Z,19.02
2022-10-01T21:33:10.854Z,17.20
2022-10-01T21:36:13.858Z,17.02
2022-10-01T21:38:46.988Z,19.33
2022-10-01T21:42:03.841Z,18.13
2022-10-01T21:44:58.867Z,17.02
2022-10-01T21:47:54.857Z,17.58
2022-10-01T21:50:42.095Z,17.08
2022-10-01T21:53:53.856Z,18.05
2022-10-01T21:56:49.857Z,17.00
2022-10-01T21:59:40.930Z,18.08
2022-10-01T22:02:50.853Z,18.90
2022-10-01T22:05:24.642Z,18.65
2022-10-01T22:08:29.873Z,19.98
2022-10-01T22:11:16.689Z,18.67
2022-10-01T22:14:10.883Z,19.23
2022-10-01T22:17:27.872Z,20.40
2022-10-01T22:20:22.855Z,18.30
2022-10-01T22:23:23.868Z,18.20
2022-10-01T22:26:03.944Z,18.58
2022-10-01T22:28:59.865Z,18.63
2022-10-01T22:31:39.062Z,19.10
2022-10-01T22:34:33.891Z,18.30
2022-10-01T22:37:12.713Z,16.98
2022-10-01T22:40:13.886Z,18.42
2022-10-01T22:42:53.948Z,17.23
2022-10-01T22:45:58.918Z,16.83
2022-10-01T22:48:44.018Z,18.23
2022-10-01T22:51:48.904Z,16.92
2022-10-01T22:54:31.262Z,18.65
2022-10-01T22:58:05.897Z,18.77
2022-10-01T23:00:48.059Z,17.73
2022-10-01T23:03:46.908Z,17.83
2022-10-01T23:07:02.892Z,19.63
2022-10-01T23:09:59.920Z,20.95
2022-10-01T23:13:05.439Z,19.63
2022-10-01T23:16:06.931Z,19.08
2022-10-01T23:19:06.920Z,19.15
2022-10-01T23:22:18.887Z,16.30
2022-10-01T23:25:30.907Z,19.00
2022-10-01T23:28:04.066Z,19.35
2022-10-01T23:31:05.906Z,19.33
2022-10-01T23:33:50.997Z,19.70
2022-10-01T23:36:55.916Z,17.27
2022-10-01T23:39:54.282Z,18.92
2022-10-01T23:42:55.921Z,17.42
2022-10-01T23:45:41.996Z,16.45
2022-10-01T23:48:42.909Z,17.80
2022-10-01T23:51:30.911Z,17.58
2022-10-01T23:54:36.890Z,19.75
2022-10-01T23:57:43.916Z,19.60
